Tuesday, May 03, 2016
01:14 UTC
  |  Log In   |  Register Free
Airport Search:

Chanute Martin Johnson Airport
(KCNU)

Chanute Martin Johnson Airport Diagram
No Airport Diagram Available

FAA data valid effective Mar 31 2016 - May 26 2016 (unless otherwise noted).

 
 
 
 
 
 
 
 
 
 
 
 
 
 
Current Aviation Weather for KCNU

Weather Summary


The most recent METAR observation for CNU was updated at: 12:52 UTC
METAR for KCNU is not available. Closest METAR is for KPPF
KCNU  (most recent observation was updatred at 30:05 UTC)
030052Z AUTO 00000KT 10SM OVC075 13/08 A3008 RMK AO2 SLP183 T01330078

KPPF  (20.3 nm NE)   (most recent observation was updated at 30:05 UTC)
030052Z AUTO 36004KT 10SM OVC075 14/07 A3009 RMK AO2 SLP187 T01390072

KIDP  (33.7 nm NE)   (most recent observation was updated at 30:05 UTC)
030055Z AUTO 04003KT 10SM SCT070 13/07 A3008 RMK AO2

TAF for KCNU is not available.
KCNU
022339Z 0300/0324 VRB05KT P6SM BKN060 FM030300 VRB03KT P6SM SCT060

GlobalAir.com is loading additional information.
 Current Weather at CNU
57.0 F° (13.9 C°)

North winds at 4.6 mph
Pressure:
30.08 in
Humidity:
64%
Wind:
North at 4.6 mph
Dew Point:
45.0 F° (7.2 C°)
Visibility:
10.00 mi
CNU NOAA Radar




Find All Airport Services Find A Hotel Find A Rental Car Find A Golf Course Find A Restaurant $100 Hamburger



Airport Weather Forecast for KCNU

Translated METAR for KCNU (0052 UTC)
METAR:
KCNU 030052Z AUTO 00000KT 10SM OVC075 13/08 A3008 RMK AO2 SLP183 T01330078
Conditions at:
KCNU (Chanute Martin Johnson, KS) observed 0052 UTC 02 May 2016
Temperature:
13°C (55.4°F)
Dewpoint:
8°C (46.4°F) [RH = 71.7]
Pressure:
30.08 inches Hg (1018.6 mb)
pressure at sea level is 183 in Hg
Winds:
from the N (000 degrees) at 0 mph (0 knots: 0 m/s)
Visibility:
10 mile(s)
Ceiling:
7,500 feet AGL
Clouds:
Overcast Skies at 7,500 feet AGL
Remarks:
site is un-manned
site is automated and HAS a precipitation sensor

Translated TAF for KCNU (Chanute Martin Johnson, KS) (2339 UTC)
TAF text:
KCNU 022339Z 0300/0324 VRB05KT P6SM BKN060
Forecast period:
Tuesday May 03 2016 00:00 UTC - Tuesday May 03 2016 24:00 UTC
Forecast type:
FROM: standard forecast or significant change
Winds:
variable wind direction at 5.8 mph (5 knots: 2.6 m/s)
Visibility:
6 or more mile(s) (9.7+ km)
Ceiling:
6,000 feet AGL
Clouds:
Broken Cloud Cover at 6,000 feet AGL
Weather:
no significant weather observed at this time
TAF text:
FM030300 VRB03KT P6SM SCT060
Forecast period:
Tuesday May 03 2016 03:00 UTC - Tuesday May 03 2016 24:00 UTC
Forecast type:
FROM: standard forecast or significant change
Winds:
variable wind direction at 3.5 mph (3 knots: 1.5 m/s)
Visibility:
6 or more mile(s) (9.7+ km)
Ceiling:
at least 12,000 feet AGL
Clouds:
Scattered Clouds at 6,000 feet AGL
Weather:
no significant weather observed at this time
FBO's on the Field
FBO Company Facility Photos Services Transportation Aviation Fuel Prices: Prices include tax
Catering Weather Repair Courtesy Rental Type 100LL JetA JetA+ MOGAS 8087
 
City of Chanute

This FBO has not yet been rated
FS:Phillips 66
Last Updated: Apr-06
Login to update fuel prices
SS:
Contact City of ChanuteMore FBO Information
 
Add another FBO Facility Photos Catering Weather Repair Courtesy Rental Type 100LL JetA JetA+ MOGAS 8087
Services Transportation Aviation Fuel Prices: Prices include tax


model-print
model-print
model-print
model-print